Green Harbor, Massachusetts
Current Conditions -  °F | °C
As of 10:10 PM on Wednesday 22 Oct 2014 (Local Time) from KGHG Reporting Station
Thunderstorm Thunderstorm  
Wind Chill: 55°   Ceiling: 200
Heat Index: 55°   Visibility: 0.5mi
Dew Point: 54°   Wind: 29mph
Humidity: 94%   Direction: 50°NE
Pressure: 29.77"   Gusts: 51mph
Location:  42.08°N, 70.65°W
Report Text: KGHG 230210Z AUTO 05025G44KT 1/2SM VCTS +RA BKN002 OVC006 13/12 A2977 RMK AO2 LTG DSNT S AND NW
Loading
Personal Weather Stations






























Interactive Weather Map
Tropical Storm Tracking
New forecast layout! Learn more

10-Day Weather Forecast

Advertisements
Track Severe Weather on mobile